Weather

Other Local Aerodome WX Info

Adelaide

TAF YPAD 262305Z 2700/2806 23016KT 9999 -SHRA SCT030 BKN040 FM271000 27014KT 9999 -SHRA SCT025 BKN040 FM271900 29018KT 9999 -SHRA SCT020 BKN030 FM280400 26020KT 9999 -SHRA SCT025 BKN035 INTER 2719/2806 27022G32KT 5000 SHRA SCT010 BKN020 RMK T 14 15 14 13 Q 1020 1020 1020 1021

Parafield

TAF YPPF 262304Z 2700/2712 23016KT 9999 -SHRA SCT030 BKN040 FM271000 27014KT 9999 -SHRA SCT025 BKN040 RMK T 14 15 14 12 Q 1019 1020 1020 1021

Murray Bridge

TAF YMBD 261922Z 2620/2708 24018G30KT 9999 -SHRA SCT020 BKN030 FM270100 23016KT 9999 NSW SCT040 INTER 2620/2700 24020G30KT 4000 SHRA SCT010 BKN020 RMK T 10 11 14 14 Q 1016 1019 1019 1019

Kingscote

TAF YKSC 262257Z 2700/2712 22014KT 9999 SCT040 FM270700 27008KT 9999 SCT030 BKN040 RMK T 13 15 14 12 Q 1020 1020 1020 1020